Punta Gorda, FL

11:33 PM EDT em 22 de Agosto de 2014 (GMT -0400)
Charlotte County | Change Station
CLOSE
Current Station
Aeroporto
Location: Punta Gorda,
Altitude: 26 ft
Estações Meteorológicas Próximas

Elev 26 ft 26.92 °N, 81.99 °W | Updated 40 minutes ago

Clear
Céu Limpo
80 °F
Aparente 84 °F
N
0
Vento Variável Vento de Norte

Hoje
Máxima -- | Mínima -- °F
--% Possibilidade de Precip.
Ontem
Máxima -- | Mínima -- °F
Precip. -- pol
7:02 AM 7:58 PM
Quarto minguante, 5% visible
Pressão 30.04 pol
Visibilidade 10.0 milhas
Nuvens Céu Limpo
Índice de Calor 84 °F
Ponto de Orvalho 74 °F
Humidade 81%
Chuva 0.16 pol
Altura de Neve Não disponível
UV 0 em vez de 12
Pólen 4.60 em vez de 12
Qualidade do Ar Não disponível
Flu Activity Não disponível
METAR KPGD 230253Z AUTO 00000KT 10SM CLR 27/23 A3004 RMK AO2 SLP172 60016 T02670233 50007

More Conditions Fewer Conditions

Pressão 30.04 pol
Visibilidade 10.0 milhas
Nuvens Céu Limpo
Índice de Calor 84 °F
Ponto de Orvalho 74 °F
Humidade 81%
Chuva 0.16 pol
Altura de Neve Não disponível
UV 0 em vez de 12
Pólen 4.60 em vez de 12
Qualidade do Ar Não disponível
Flu Activity Não disponível
METAR KPGD 230253Z AUTO 00000KT 10SM CLR 27/23 A3004 RMK AO2 SLP172 60016 T02670233 50007

More Conditions Fewer Conditions

10-Day Weather Forecast

Almanac

Astronomia

Aug. 22, 2014 Nascer Pôr
Hora atual 07:02 EDT 19:58 EDT
Crepúsculo civil 06:38 EDT 20:22 EDT
Crepúsculo náutico 06:10 EDT 20:50 EDT
Crepúsculo astronómico 05:41 EDT 21:19 EDT
Lua 04:31 EDT (8/22) 18:01 EDT (8/22)
Comprimento da luz visível 13h 43m
Duração do Dia
12h 55m
Tomorrow will be 1m 27s shorter.
Quarto minguante, 5% of the Moon is Illuminated
Hoje
Quarto minguante
Ago 25
Nova
Set 2
Quarto crescente
Set 8
Lua cheia
Set 15
Quarto minguante

Extremos de Hoje

situação na parte mais alta situação na parte mais baixa

Community

WunderPhotos

Upload Photos

1,746,352 fotografias inseridas!

WunderBlogs® & News

Nearby

Altura da Neve

Estação altura Altitude
Não há relatos de neve recente.

Actividade Sísmisca

Cidade Distância Mag. Hora & Data
Não há notícias de atividade sísmica recente perto de si.
Mínima magnitude apresentada é 2.5.

Temperaturas das Águas Costeiras

Local Temperatura
Não há estações a reportar dados

Estações Meteorológicas Próximas